Nordic Philip — 5BZH2 — position and weather

sailwx.info

Track history (hours):
 
Tides and Currents Weather Stations Pressure Air Temp Water Temp Dewpoint Dewpoint Depression Visibility Wind Speed Wind Dir Waves Ship Positions

Nordic Philip

Last reported at 2017-May-29 22:21 UTC. Time now 2017-May-29 22:39 UTC.
Position N 54°23' E 010°11'.

Length 152 m; draft 8.1 m.

Type: Ship (hazmat cat A). MMSI: 212018000.

Date/timePositionNaut miles runAvg speedWind from/ knotsBaromVisibWave heightAir tempDewpointWater temp
2017-May-29 22:21N 54°23' E 010°11'0 1.0
2017-May-29 22:00N 54°23' E 010°11'4 7.2
2017-May-29 21:29N 54°26' E 010°14'611.2
2017-May-29 20:59N 54°31' E 010°18'1211.6
2017-May-29 19:56N 54°34' E 010°38'716.5
2017-May-29 19:30N 54°35' E 010°50'816.8
2017-May-29 19:00N 54°37' E 011°05'816.2
2017-May-29 18:30N 54°34' E 011°18'917.4
2017-May-29 18:00N 54°30' E 011°31'917.4
2017-May-29 17:30N 54°26' E 011°45'917.2
2017-May-29 17:00N 54°26' E 011°59'815.6
2017-May-29 16:30N 54°29' E 012°12'2516.7
2017-May-29 15:01N 54°46' E 012°43'018.1
2017-May-29 14:59N 54°47' E 012°44'1317.7
2017-May-29 14:15N 54°51' E 013°05'1317.7
2017-May-29 13:30N 54°56' E 013°26'917.6
2017-May-29 12:59N 54°59' E 013°41'917.4
2017-May-29 12:29N 55°02' E 013°55'817.3
2017-May-29 12:00N 55°06' E 014°08'917.6
2017-May-29 11:30N 55°13' E 014°18'817.4
2017-May-29 11:00N 55°20' E 014°27'917.2
2017-May-29 10:30N 55°26' E 014°37'917.6
2017-May-29 10:00N 55°31' E 014°50'917.1
2017-May-29 09:30N 55°36' E 015°03'816.8
2017-May-29 09:00N 55°40' E 015°16'816.9
2017-May-29 08:30N 55°44' E 015°28'917.2
2017-May-29 08:00N 55°49' E 015°42'917.3
2017-May-29 07:30N 55°53' E 015°55'917.3
2017-May-29 07:01N 55°57' E 016°08'917.3
2017-May-29 06:31N 56°02' E 016°22'917.2
2017-May-29 06:00N 56°06' E 016°35'816.8
2017-May-29 05:30N 56°11' E 016°47'917.1
2017-May-29 05:00N 56°19' E 016°52'816.9
2017-May-29 04:30N 56°27' E 016°58'18917.1
2017-May-28 17:27N 59°15' E 019°41'817.0
2017-May-28 17:00N 59°22' E 019°49'816.6
2017-May-28 16:30N 59°29' E 019°56'815.9
2017-May-28 15:58N 59°38' E 019°55'817.4
2017-May-28 15:30N 59°44' E 019°45'917.3
2017-May-28 15:00N 59°51' E 019°35'1717.3
2017-May-28 14:00N 60°04' E 019°13'917.3
2017-May-28 13:30N 60°11' E 019°02'917.2
2017-May-28 13:00N 60°20' E 019°00'  
2017-May-23 07:13N 60°28' E 019°01'418.4
2017-May-23 07:00N 60°24' E 019°01'918.2
2017-May-23 06:30N 60°15' E 019°03'918.0
2017-May-23 06:00N 60°07' E 019°13'917.2
2017-May-23 05:30N 60°01' E 019°25'917.2
2017-May-23 05:00N 59°54' E 019°35'816.9
2017-May-23 04:30N 59°48' E 019°46'24817.0
2017-May-22 13:57N 55°40' E 019°49'2117.5
2017-May-22 12:45N 55°19' E 019°44'518.0
2017-May-22 12:30N 55°15' E 019°42'918.0
2017-May-22 12:00N 55°06' E 019°38'918.0
2017-May-22 11:30N 54°57' E 019°36'918.1
2017-May-22 11:00N 54°48' E 019°37'816.3
2017-May-22 10:30N 54°42' E 019°46'611.6
2017-May-22 10:00N 54°38' E 019°54'4 7.7
2017-May-22 09:31N 54°38' E 020°00'7 7.5
2017-May-22 08:38N 54°41' E 020°11'5 8.2
2017-May-22 08:00N 54°41' E 020°20'4 7.0
2017-May-22 07:30N 54°42' E 020°26'1 1.0
2017-May-22 06:12N 54°42' E 020°27'0 0.0
2017-May-22 06:00N 54°42' E 020°27'0 0.0
2017-May-22 05:27N 54°42' E 020°27'0 0.0
2017-May-22 04:42N 54°42' E 020°27'0 0.0
2017-May-22 04:27N 54°42' E 020°27'0 0.0
2017-May-22 04:00N 54°42' E 020°27'0 0.0
2017-May-22 03:30N 54°42' E 020°27'0 0.0
2017-May-22 02:54N 54°42' E 020°27'0 0.0
2017-May-22 02:30N 54°42' E 020°27'0 0.0
2017-May-20 16:18N 54°42' E 020°27'2 4.9
2017-May-20 15:51N 54°41' E 020°24'13 7.1
2017-May-20 14:00N 54°38' E 020°01'4 8.5
2017-May-20 13:30N 54°38' E 019°54'4 7.9
2017-May-20 13:00N 54°40' E 019°48'4 8.6
2017-May-20 12:30N 54°42' E 019°42'510.4
2017-May-20 12:00N 54°45' E 019°34'510.4
2017-May-20 11:30N 54°47' E 019°26'510.3
2017-May-20 11:00N 54°49' E 019°18'510.3
2017-May-20 10:30N 54°51' E 019°09'510.7
2017-May-20 10:00N 54°52' E 019°00'510.6
2017-May-20 09:30N 54°53' E 018°52'510.7
2017-May-20 09:00N 54°54' E 018°42'510.7
2017-May-20 08:30N 54°55' E 018°33'510.6
2017-May-20 08:00N 54°55' E 018°24'510.5
2017-May-20 07:30N 54°55' E 018°15'510.5
2017-May-20 07:00N 54°54' E 018°06'510.6
2017-May-20 06:30N 54°54' E 017°56'510.5
2017-May-20 06:00N 54°54' E 017°47'510.4
2017-May-20 05:30N 54°54' E 017°38'510.4
2017-May-20 05:00N 54°53' E 017°29'  
Track history (hours):
 
Tides and Currents Weather Stations Pressure Air Temp Water Temp Dewpoint Dewpoint Depression Visibility Wind Speed Wind Dir Waves Ship Positions

Nordic Philip

Last reported at 2017-May-29 22:21 UTC. Time now 2017-May-29 22:39 UTC.
Position N 54°23' E 010°11'.

Length 152 m; draft 8.1 m.

Type: Ship (hazmat cat A). MMSI: 212018000.

Date/timePositionNaut miles runAvg speedWind from/ knotsBaromVisibWave heightAir tempDewpointWater temp
2017-May-29 22:21N 54°23' E 010°11'0 1.0
2017-May-29 22:00N 54°23' E 010°11'4 7.2
2017-May-29 21:29N 54°26' E 010°14'611.2
2017-May-29 20:59N 54°31' E 010°18'1211.6
2017-May-29 19:56N 54°34' E 010°38'716.5
2017-May-29 19:30N 54°35' E 010°50'816.8
2017-May-29 19:00N 54°37' E 011°05'816.2
2017-May-29 18:30N 54°34' E 011°18'917.4
2017-May-29 18:00N 54°30' E 011°31'917.4
2017-May-29 17:30N 54°26' E 011°45'917.2
2017-May-29 17:00N 54°26' E 011°59'815.6
2017-May-29 16:30N 54°29' E 012°12'2516.7
2017-May-29 15:01N 54°46' E 012°43'018.1
2017-May-29 14:59N 54°47' E 012°44'1317.7
2017-May-29 14:15N 54°51' E 013°05'1317.7
2017-May-29 13:30N 54°56' E 013°26'917.6
2017-May-29 12:59N 54°59' E 013°41'917.4
2017-May-29 12:29N 55°02' E 013°55'817.3
2017-May-29 12:00N 55°06' E 014°08'917.6
2017-May-29 11:30N 55°13' E 014°18'817.4
2017-May-29 11:00N 55°20' E 014°27'917.2
2017-May-29 10:30N 55°26' E 014°37'917.6
2017-May-29 10:00N 55°31' E 014°50'917.1
2017-May-29 09:30N 55°36' E 015°03'816.8
2017-May-29 09:00N 55°40' E 015°16'816.9
2017-May-29 08:30N 55°44' E 015°28'917.2
2017-May-29 08:00N 55°49' E 015°42'917.3
2017-May-29 07:30N 55°53' E 015°55'917.3
2017-May-29 07:01N 55°57' E 016°08'917.3
2017-May-29 06:31N 56°02' E 016°22'917.2
2017-May-29 06:00N 56°06' E 016°35'816.8
2017-May-29 05:30N 56°11' E 016°47'917.1
2017-May-29 05:00N 56°19' E 016°52'816.9
2017-May-29 04:30N 56°27' E 016°58'18917.1
2017-May-28 17:27N 59°15' E 019°41'817.0
2017-May-28 17:00N 59°22' E 019°49'816.6
2017-May-28 16:30N 59°29' E 019°56'815.9
2017-May-28 15:58N 59°38' E 019°55'817.4
2017-May-28 15:30N 59°44' E 019°45'917.3
2017-May-28 15:00N 59°51' E 019°35'1717.3
2017-May-28 14:00N 60°04' E 019°13'917.3
2017-May-28 13:30N 60°11' E 019°02'917.2
2017-May-28 13:00N 60°20' E 019°00'  
2017-May-23 07:13N 60°28' E 019°01'418.4
2017-May-23 07:00N 60°24' E 019°01'918.2
2017-May-23 06:30N 60°15' E 019°03'918.0
2017-May-23 06:00N 60°07' E 019°13'917.2
2017-May-23 05:30N 60°01' E 019°25'917.2
2017-May-23 05:00N 59°54' E 019°35'816.9
2017-May-23 04:30N 59°48' E 019°46'24817.0
2017-May-22 13:57N 55°40' E 019°49'2117.5
2017-May-22 12:45N 55°19' E 019°44'518.0
2017-May-22 12:30N 55°15' E 019°42'918.0
2017-May-22 12:00N 55°06' E 019°38'918.0
2017-May-22 11:30N 54°57' E 019°36'918.1
2017-May-22 11:00N 54°48' E 019°37'816.3
2017-May-22 10:30N 54°42' E 019°46'611.6
2017-May-22 10:00N 54°38' E 019°54'4 7.7
2017-May-22 09:31N 54°38' E 020°00'7 7.5
2017-May-22 08:38N 54°41' E 020°11'5 8.2
2017-May-22 08:00N 54°41' E 020°20'4 7.0
2017-May-22 07:30N 54°42' E 020°26'1 1.0
2017-May-22 06:12N 54°42' E 020°27'0 0.0
2017-May-22 06:00N 54°42' E 020°27'0 0.0
2017-May-22 05:27N 54°42' E 020°27'0 0.0
2017-May-22 04:42N 54°42' E 020°27'0 0.0
2017-May-22 04:27N 54°42' E 020°27'0 0.0
2017-May-22 04:00N 54°42' E 020°27'0 0.0
2017-May-22 03:30N 54°42' E 020°27'0 0.0
2017-May-22 02:54N 54°42' E 020°27'0 0.0
2017-May-22 02:30N 54°42' E 020°27'0 0.0
2017-May-20 16:18N 54°42' E 020°27'2 4.9
2017-May-20 15:51N 54°41' E 020°24'13 7.1
2017-May-20 14:00N 54°38' E 020°01'4 8.5
2017-May-20 13:30N 54°38' E 019°54'4 7.9
2017-May-20 13:00N 54°40' E 019°48'4 8.6
2017-May-20 12:30N 54°42' E 019°42'510.4
2017-May-20 12:00N 54°45' E 019°34'510.4
2017-May-20 11:30N 54°47' E 019°26'510.3
2017-May-20 11:00N 54°49' E 019°18'510.3
2017-May-20 10:30N 54°51' E 019°09'510.7
2017-May-20 10:00N 54°52' E 019°00'510.6
2017-May-20 09:30N 54°53' E 018°52'510.7
2017-May-20 09:00N 54°54' E 018°42'510.7
2017-May-20 08:30N 54°55' E 018°33'510.6
2017-May-20 08:00N 54°55' E 018°24'510.5
2017-May-20 07:30N 54°55' E 018°15'510.5
2017-May-20 07:00N 54°54' E 018°06'510.6
2017-May-20 06:30N 54°54' E 017°56'510.5
2017-May-20 06:00N 54°54' E 017°47'510.4
2017-May-20 05:30N 54°54' E 017°38'510.4
2017-May-20 05:00N 54°53' E 017°29'  

Dump ship's entire track history